sensor_id;sensor_type;location;lat;lon;timestamp;pressure;altitude;pressure_sealevel;temperature;humidity
33161;BME280;19522;45.656;11.302;2023-04-30T00:00:55;98269.78;;;13.38;84.52
33161;BME280;19522;45.656;11.302;2023-04-30T00:03:21;98272.53;;;13.31;84.83
33161;BME280;19522;45.656;11.302;2023-04-30T00:05:51;98271.25;;;13.34;84.90
33161;BME280;19522;45.656;11.302;2023-04-30T00:08:17;98264.97;;;13.27;85.06
33161;BME280;19522;45.656;11.302;2023-04-30T00:10:43;98277.13;;;13.37;85.08
33161;BME280;19522;45.656;11.302;2023-04-30T00:13:08;98248.81;;;13.25;85.04
33161;BME280;19522;45.656;11.302;2023-04-30T00:15:35;98280.91;;;13.70;84.10
33161;BME280;19522;45.656;11.302;2023-04-30T00:18:01;98258.66;;;13.73;82.59
33161;BME280;19522;45.656;11.302;2023-04-30T00:20:26;98284.69;;;13.22;85.16
33161;BME280;19522;45.656;11.302;2023-04-30T00:22:52;98259.31;;;12.94;86.13
33161;BME280;19522;45.656;11.302;2023-04-30T00:25:17;98275.41;;;12.69;87.67
33161;BME280;19522;45.656;11.302;2023-04-30T00:27:45;98298.72;;;12.92;88.08
33161;BME280;19522;45.656;11.302;2023-04-30T00:30:11;98285.94;;;13.06;87.75
33161;BME280;19522;45.656;11.302;2023-04-30T00:32:36;98255.34;;;13.17;86.30
33161;BME280;19522;45.656;11.302;2023-04-30T00:35:02;98267.47;;;13.28;86.06
33161;BME280;19522;45.656;11.302;2023-04-30T00:37:27;98294.97;;;13.40;86.03
33161;BME280;19522;45.656;11.302;2023-04-30T00:39:53;98281.94;;;13.35;85.73
33161;BME280;19522;45.656;11.302;2023-04-30T00:42:18;98267.25;;;13.36;85.46
33161;BME280;19522;45.656;11.302;2023-04-30T00:44:44;98266.44;;;13.43;85.11
33161;BME280;19522;45.656;11.302;2023-04-30T00:47:10;98270.63;;;13.52;84.65
33161;BME280;19522;45.656;11.302;2023-04-30T00:49:35;98280.28;;;13.61;84.19
33161;BME280;19522;45.656;11.302;2023-04-30T00:52:01;98275.03;;;13.60;83.39
33161;BME280;19522;45.656;11.302;2023-04-30T00:54:26;98279.03;;;13.57;83.24
33161;BME280;19522;45.656;11.302;2023-04-30T00:56:52;98275.25;;;13.51;83.90
33161;BME280;19522;45.656;11.302;2023-04-30T00:59:17;98282.81;;;13.63;83.35
33161;BME280;19522;45.656;11.302;2023-04-30T01:01:43;98271.44;;;13.79;82.45
33161;BME280;19522;45.656;11.302;2023-04-30T01:04:09;98243.09;;;13.67;82.11
33161;BME280;19522;45.656;11.302;2023-04-30T01:06:34;98250.88;;;13.77;81.80
33161;BME280;19522;45.656;11.302;2023-04-30T01:09:01;98252.97;;;13.75;82.29
33161;BME280;19522;45.656;11.302;2023-04-30T01:14:11;98243.34;;;13.32;84.19
33161;BME280;19522;45.656;11.302;2023-04-30T01:16:47;98269.56;;;13.19;85.82
33161;BME280;19522;45.656;11.302;2023-04-30T01:22:05;98254.69;;;13.02;87.30
33161;BME280;19522;45.656;11.302;2023-04-30T01:24:52;98274.19;;;13.25;86.68
33161;BME280;19522;45.656;11.302;2023-04-30T01:27:56;98278.41;;;13.28;86.17
33161;BME280;19522;45.656;11.302;2023-04-30T01:30:26;98262.84;;;12.95;87.78
33161;BME280;19522;45.656;11.302;2023-04-30T01:32:51;98273.13;;;13.06;87.81
33161;BME280;19522;45.656;11.302;2023-04-30T01:35:17;98266.63;;;13.01;87.97
33161;BME280;19522;45.656;11.302;2023-04-30T01:38:33;98270.63;;;13.05;88.30
33161;BME280;19522;45.656;11.302;2023-04-30T01:40:47;98247.75;;;12.86;88.06
33161;BME280;19522;45.656;11.302;2023-04-30T01:43:28;98251.94;;;12.95;88.07
33161;BME280;19522;45.656;11.302;2023-04-30T01:48:52;98278.41;;;13.08;87.23
33161;BME280;19522;45.656;11.302;2023-04-30T01:51:41;98281.31;;;13.06;87.44
33161;BME280;19522;45.656;11.302;2023-04-30T01:54:28;98276.06;;;13.32;85.41
33161;BME280;19522;45.656;11.302;2023-04-30T01:57:05;98274.19;;;13.32;84.61
33161;BME280;19522;45.656;11.302;2023-04-30T01:59:34;98275.66;;;13.28;84.76
33161;BME280;19522;45.656;11.302;2023-04-30T02:02:00;98258.03;;;13.04;85.37
33161;BME280;19522;45.656;11.302;2023-04-30T02:04:26;98279.84;;;12.97;86.54
33161;BME280;19522;45.656;11.302;2023-04-30T02:06:51;98271.03;;;12.88;89.20
33161;BME280;19522;45.656;11.302;2023-04-30T02:09:17;98272.66;;;12.69;90.36
33161;BME280;19522;45.656;11.302;2023-04-30T02:11:42;98274.31;;;12.57;90.38
33161;BME280;19522;45.656;11.302;2023-04-30T02:14:08;98270.75;;;12.50;90.33
33161;BME280;19522;45.656;11.302;2023-04-30T02:16:34;98260.72;;;12.63;87.86
33161;BME280;19522;45.656;11.302;2023-04-30T02:19:00;98281.50;;;12.85;87.63
33161;BME280;19522;45.656;11.302;2023-04-30T02:21:25;98279.81;;;12.77;88.43
33161;BME280;19522;45.656;11.302;2023-04-30T02:23:51;98262.63;;;12.63;88.17
33161;BME280;19522;45.656;11.302;2023-04-30T02:26:17;98260.03;;;12.41;89.15
33161;BME280;19522;45.656;11.302;2023-04-30T02:28:42;98248.75;;;12.44;89.50
33161;BME280;19522;45.656;11.302;2023-04-30T02:31:08;98279.41;;;12.87;88.12
33161;BME280;19522;45.656;11.302;2023-04-30T02:33:33;98272.72;;;13.03;86.58
33161;BME280;19522;45.656;11.302;2023-04-30T02:35:59;98281.75;;;12.97;86.91
33161;BME280;19522;45.656;11.302;2023-04-30T02:38:25;98275.84;;;12.80;87.95
33161;BME280;19522;45.656;11.302;2023-04-30T02:40:51;98239.34;;;12.67;87.20
33161;BME280;19522;45.656;11.302;2023-04-30T02:43:16;98271.88;;;12.89;87.42
33161;BME280;19522;45.656;11.302;2023-04-30T02:45:42;98274.78;;;12.74;88.03
33161;BME280;19522;45.656;11.302;2023-04-30T02:48:07;98251.25;;;12.46;89.24
33161;BME280;19522;45.656;11.302;2023-04-30T02:50:33;98272.63;;;12.49;89.68
33161;BME280;19522;45.656;11.302;2023-04-30T02:52:58;98263.81;;;12.47;89.76
33161;BME280;19522;45.656;11.302;2023-04-30T02:55:24;98256.66;;;12.39;90.13
33161;BME280;19522;45.656;11.302;2023-04-30T02:57:49;98236.09;;;12.23;91.12
33161;BME280;19522;45.656;11.302;2023-04-30T03:00:15;98253.69;;;12.21;92.59
33161;BME280;19522;45.656;11.302;2023-04-30T03:02:42;98248.63;;;12.18;92.84
33161;BME280;19522;45.656;11.302;2023-04-30T03:05:07;98245.28;;;12.15;93.58
33161;BME280;19522;45.656;11.302;2023-04-30T03:07:33;98261.31;;;12.45;91.94
33161;BME280;19522;45.656;11.302;2023-04-30T03:09:58;98249.13;;;12.41;91.71
33161;BME280;19522;45.656;11.302;2023-04-30T03:12:24;98234.06;;;12.52;89.78
33161;BME280;19522;45.656;11.302;2023-04-30T03:14:49;98248.56;;;12.59;89.48
33161;BME280;19522;45.656;11.302;2023-04-30T03:17:16;98251.00;;;12.41;90.80
33161;BME280;19522;45.656;11.302;2023-04-30T03:19:42;98240.06;;;12.21;91.70
33161;BME280;19522;45.656;11.302;2023-04-30T03:22:07;98258.59;;;12.45;91.87
33161;BME280;19522;45.656;11.302;2023-04-30T03:24:33;98243.28;;;12.51;90.06
33161;BME280;19522;45.656;11.302;2023-04-30T03:26:58;98254.84;;;12.60;91.34
33161;BME280;19522;45.656;11.302;2023-04-30T03:29:24;98251.28;;;12.53;91.10
33161;BME280;19522;45.656;11.302;2023-04-30T03:31:49;98245.78;;;12.39;92.58
33161;BME280;19522;45.656;11.302;2023-04-30T03:34:15;98259.19;;;12.41;92.46
33161;BME280;19522;45.656;11.302;2023-04-30T03:36:41;98252.03;;;12.26;93.25
33161;BME280;19522;45.656;11.302;2023-04-30T03:39:06;98257.06;;;12.36;92.35
33161;BME280;19522;45.656;11.302;2023-04-30T03:41:34;98238.66;;;12.38;92.40
33161;BME280;19522;45.656;11.302;2023-04-30T03:43:59;98231.34;;;12.45;91.90
33161;BME280;19522;45.656;11.302;2023-04-30T03:46:25;98215.00;;;12.39;92.18
33161;BME280;19522;45.656;11.302;2023-04-30T03:48:50;98260.50;;;12.58;92.36
33161;BME280;19522;45.656;11.302;2023-04-30T03:51:21;98244.75;;;12.40;93.51
33161;BME280;19522;45.656;11.302;2023-04-30T03:53:47;98236.72;;;12.25;95.53
33161;BME280;19522;45.656;11.302;2023-04-30T03:56:13;98230.66;;;12.23;95.89
33161;BME280;19522;45.656;11.302;2023-04-30T03:58:38;98220.59;;;12.24;94.66
33161;BME280;19522;45.656;11.302;2023-04-30T04:01:04;98243.53;;;12.56;92.76
33161;BME280;19522;45.656;11.302;2023-04-30T04:03:30;98226.34;;;12.49;92.51
33161;BME280;19522;45.656;11.302;2023-04-30T04:05:58;98221.25;;;12.32;92.96
33161;BME280;19522;45.656;11.302;2023-04-30T04:08:23;98195.97;;;12.45;92.37
33161;BME280;19522;45.656;11.302;2023-04-30T04:10:49;98225.50;;;12.75;90.23
33161;BME280;19522;45.656;11.302;2023-04-30T04:13:14;98225.53;;;12.69;90.18
33161;BME280;19522;45.656;11.302;2023-04-30T04:15:40;98212.50;;;12.57;90.44
33161;BME280;19522;45.656;11.302;2023-04-30T04:18:05;98199.03;;;12.29;91.91
33161;BME280;19522;45.656;11.302;2023-04-30T04:20:32;98240.78;;;12.50;93.47
33161;BME280;19522;45.656;11.302;2023-04-30T04:22:58;98232.41;;;12.58;92.63
33161;BME280;19522;45.656;11.302;2023-04-30T04:25:23;98232.00;;;12.61;92.80
33161;BME280;19522;45.656;11.302;2023-04-30T04:27:50;98253.34;;;12.51;93.55
33161;BME280;19522;45.656;11.302;2023-04-30T04:30:17;98233.22;;;12.45;94.05
33161;BME280;19522;45.656;11.302;2023-04-30T04:32:42;98236.59;;;12.54;93.59
33161;BME280;19522;45.656;11.302;2023-04-30T04:35:14;98234.28;;;12.51;94.01
33161;BME280;19522;45.656;11.302;2023-04-30T04:37:40;98256.78;;;12.93;92.12
33161;BME280;19522;45.656;11.302;2023-04-30T04:40:07;98245.84;;;12.73;92.10
33161;BME280;19522;45.656;11.302;2023-04-30T04:42:33;98250.28;;;12.81;92.35
33161;BME280;19522;45.656;11.302;2023-04-30T04:44:58;98261.41;;;13.06;91.08
33161;BME280;19522;45.656;11.302;2023-04-30T04:47:24;98244.22;;;12.92;91.41
33161;BME280;19522;45.656;11.302;2023-04-30T04:49:50;98270.19;;;12.88;92.11
33161;BME280;19522;45.656;11.302;2023-04-30T04:52:15;98235.34;;;12.70;92.48
33161;BME280;19522;45.656;11.302;2023-04-30T04:54:40;98240.19;;;12.68;92.81
33161;BME280;19522;45.656;11.302;2023-04-30T04:57:06;98251.94;;;12.95;91.18
33161;BME280;19522;45.656;11.302;2023-04-30T04:59:32;98274.41;;;13.31;87.65
33161;BME280;19522;45.656;11.302;2023-04-30T05:01:57;98281.97;;;13.15;89.08
33161;BME280;19522;45.656;11.302;2023-04-30T05:04:23;98273.75;;;13.02;90.01
33161;BME280;19522;45.656;11.302;2023-04-30T05:06:48;98289.91;;;12.90;92.15
33161;BME280;19522;45.656;11.302;2023-04-30T05:09:14;98279.44;;;13.00;92.16
33161;BME280;19522;45.656;11.302;2023-04-30T05:11:40;98266.88;;;13.13;91.25
33161;BME280;19522;45.656;11.302;2023-04-30T05:14:06;98281.97;;;13.22;91.40
33161;BME280;19522;45.656;11.302;2023-04-30T05:16:32;98283.22;;;13.53;89.29
33161;BME280;19522;45.656;11.302;2023-04-30T05:18:57;98264.53;;;13.56;88.62
33161;BME280;19522;45.656;11.302;2023-04-30T05:21:23;98258.84;;;13.71;87.07
33161;BME280;19522;45.656;11.302;2023-04-30T05:23:50;98274.78;;;13.88;87.08
33161;BME280;19522;45.656;11.302;2023-04-30T05:26:15;98280.41;;;14.00;87.18
33161;BME280;19522;45.656;11.302;2023-04-30T05:28:41;98288.84;;;13.85;88.21
33161;BME280;19522;45.656;11.302;2023-04-30T05:31:06;98285.47;;;13.83;88.53
33161;BME280;19522;45.656;11.302;2023-04-30T05:33:32;98271.03;;;13.62;89.32
33161;BME280;19522;45.656;11.302;2023-04-30T05:35:58;98296.22;;;13.71;89.53
33161;BME280;19522;45.656;11.302;2023-04-30T05:38:23;98295.75;;;13.81;89.14
33161;BME280;19522;45.656;11.302;2023-04-30T05:40:49;98296.22;;;13.78;88.63
33161;BME280;19522;45.656;11.302;2023-04-30T05:43:14;98294.50;;;13.90;87.91
33161;BME280;19522;45.656;11.302;2023-04-30T05:45:40;98272.47;;;13.78;87.73
33161;BME280;19522;45.656;11.302;2023-04-30T05:48:05;98306.91;;;13.86;88.36
33161;BME280;19522;45.656;11.302;2023-04-30T05:50:31;98254.47;;;13.50;89.47
33161;BME280;19522;45.656;11.302;2023-04-30T05:52:56;98304.59;;;13.83;89.40
33161;BME280;19522;45.656;11.302;2023-04-30T05:55:22;98308.41;;;13.75;90.13
33161;BME280;19522;45.656;11.302;2023-04-30T05:57:47;98286.13;;;13.85;89.65
33161;BME280;19522;45.656;11.302;2023-04-30T06:00:13;98269.09;;;13.90;88.65
33161;BME280;19522;45.656;11.302;2023-04-30T06:02:40;98309.94;;;14.23;87.74
33161;BME280;19522;45.656;11.302;2023-04-30T06:05:08;98268.84;;;14.05;87.14
33161;BME280;19522;45.656;11.302;2023-04-30T06:07:34;98289.72;;;14.38;85.46
33161;BME280;19522;45.656;11.302;2023-04-30T06:09:59;98294.13;;;14.39;85.23
33161;BME280;19522;45.656;11.302;2023-04-30T06:12:25;98283.84;;;14.34;84.87
33161;BME280;19522;45.656;11.302;2023-04-30T06:14:51;98295.34;;;14.49;84.81
33161;BME280;19522;45.656;11.302;2023-04-30T06:17:16;98305.16;;;14.57;84.33
33161;BME280;19522;45.656;11.302;2023-04-30T06:19:42;98299.25;;;14.74;83.25
33161;BME280;19522;45.656;11.302;2023-04-30T06:22:07;98248.03;;;14.49;83.22
33161;BME280;19522;45.656;11.302;2023-04-30T06:24:33;98279.91;;;14.62;83.79
33161;BME280;19522;45.656;11.302;2023-04-30T06:26:59;98305.09;;;14.77;83.40
33161;BME280;19522;45.656;11.302;2023-04-30T06:29:24;98306.31;;;14.82;83.53
33161;BME280;19522;45.656;11.302;2023-04-30T06:31:50;98282.44;;;14.70;83.01
33161;BME280;19522;45.656;11.302;2023-04-30T06:34:17;98276.97;;;14.70;82.79
33161;BME280;19522;45.656;11.302;2023-04-30T06:36:43;98274.03;;;14.72;82.40
33161;BME280;19522;45.656;11.302;2023-04-30T06:39:09;98297.47;;;14.86;81.93
33161;BME280;19522;45.656;11.302;2023-04-30T06:41:34;98318.88;;;14.96;82.48
33161;BME280;19522;45.656;11.302;2023-04-30T06:43:59;98314.31;;;15.15;82.09
33161;BME280;19522;45.656;11.302;2023-04-30T06:46:25;98309.47;;;15.17;82.04
33161;BME280;19522;45.656;11.302;2023-04-30T06:48:50;98286.97;;;14.90;82.31
33161;BME280;19522;45.656;11.302;2023-04-30T06:51:16;98287.13;;;14.95;82.09
33161;BME280;19522;45.656;11.302;2023-04-30T06:53:41;98299.91;;;15.01;82.03
33161;BME280;19522;45.656;11.302;2023-04-30T06:56:07;98302.44;;;15.03;82.74
33161;BME280;19522;45.656;11.302;2023-04-30T06:58:33;98315.41;;;15.14;82.59
33161;BME280;19522;45.656;11.302;2023-04-30T07:00:58;98327.94;;;15.22;82.32
33161;BME280;19522;45.656;11.302;2023-04-30T07:03:24;98337.56;;;15.31;81.83
33161;BME280;19522;45.656;11.302;2023-04-30T07:05:49;98336.69;;;15.37;81.57
33161;BME280;19522;45.656;11.302;2023-04-30T07:08:15;98322.81;;;15.32;81.22
33161;BME280;19522;45.656;11.302;2023-04-30T07:10:41;98345.91;;;15.43;81.02
33161;BME280;19522;45.656;11.302;2023-04-30T07:13:07;98347.31;;;15.52;80.97
33161;BME280;19522;45.656;11.302;2023-04-30T07:15:33;98354.28;;;15.48;81.41
33161;BME280;19522;45.656;11.302;2023-04-30T07:17:58;98344.22;;;15.42;81.76
33161;BME280;19522;45.656;11.302;2023-04-30T07:20:24;98349.97;;;15.59;81.80
33161;BME280;19522;45.656;11.302;2023-04-30T07:22:58;98330.56;;;15.42;78.97
33161;BME280;19522;45.656;11.302;2023-04-30T07:25:24;98363.53;;;15.47;78.88
33161;BME280;19522;45.656;11.302;2023-04-30T07:27:54;98364.75;;;15.58;77.51
33161;BME280;19522;45.656;11.302;2023-04-30T07:30:20;98349.63;;;15.49;77.76
33161;BME280;19522;45.656;11.302;2023-04-30T07:32:46;98355.09;;;15.49;78.31
33161;BME280;19522;45.656;11.302;2023-04-30T07:35:11;98358.31;;;15.46;79.64
33161;BME280;19522;45.656;11.302;2023-04-30T07:37:38;98382.59;;;15.61;80.66
33161;BME280;19522;45.656;11.302;2023-04-30T07:40:04;98376.94;;;15.55;82.18
33161;BME280;19522;45.656;11.302;2023-04-30T07:42:30;98375.25;;;15.54;82.94
33161;BME280;19522;45.656;11.302;2023-04-30T07:44:55;98375.06;;;15.56;84.01
33161;BME280;19522;45.656;11.302;2023-04-30T07:47:21;98399.22;;;15.59;85.28
33161;BME280;19522;45.656;11.302;2023-04-30T07:49:48;98391.56;;;15.42;87.22
33161;BME280;19522;45.656;11.302;2023-04-30T07:52:13;98385.28;;;15.42;87.68
33161;BME280;19522;45.656;11.302;2023-04-30T07:54:39;98398.06;;;15.48;88.43
33161;BME280;19522;45.656;11.302;2023-04-30T07:57:05;98416.13;;;15.56;89.59
33161;BME280;19522;45.656;11.302;2023-04-30T07:59:31;98359.91;;;15.28;90.56
33161;BME280;19522;45.656;11.302;2023-04-30T08:01:57;98398.50;;;15.45;92.01
33161;BME280;19522;45.656;11.302;2023-04-30T08:04:23;98426.03;;;15.50;92.60
33161;BME280;19522;45.656;11.302;2023-04-30T08:06:48;98419.31;;;15.46;93.79
33161;BME280;19522;45.656;11.302;2023-04-30T08:09:14;98419.16;;;15.41;95.03
33161;BME280;19522;45.656;11.302;2023-04-30T08:11:40;98421.91;;;15.41;95.45
33161;BME280;19522;45.656;11.302;2023-04-30T08:14:06;98430.97;;;15.35;96.57
33161;BME280;19522;45.656;11.302;2023-04-30T08:16:31;98398.28;;;15.15;97.37
33161;BME280;19522;45.656;11.302;2023-04-30T08:18:57;98422.88;;;15.15;98.59
33161;BME280;19522;45.656;11.302;2023-04-30T08:21:23;98434.66;;;15.15;99.76
33161;BME280;19522;45.656;11.302;2023-04-30T08:23:49;98436.63;;;15.40;100.00
33161;BME280;19522;45.656;11.302;2023-04-30T08:26:14;98435.44;;;15.29;100.00
33161;BME280;19522;45.656;11.302;2023-04-30T08:28:40;98426.06;;;15.11;100.00
33161;BME280;19522;45.656;11.302;2023-04-30T08:31:06;98443.72;;;15.16;100.00
33161;BME280;19522;45.656;11.302;2023-04-30T08:33:31;98426.78;;;14.93;100.00
33161;BME280;19522;45.656;11.302;2023-04-30T08:35:57;98416.47;;;14.95;100.00
33161;BME280;19522;45.656;11.302;2023-04-30T08:38:24;98453.25;;;15.00;100.00
33161;BME280;19522;45.656;11.302;2023-04-30T08:43:33;98416.16;;;14.72;100.00
33161;BME280;19522;45.656;11.302;2023-04-30T08:45:59;98448.44;;;14.88;100.00
33161;BME280;19522;45.656;11.302;2023-04-30T08:48:26;98445.69;;;14.95;100.00
33161;BME280;19522;45.656;11.302;2023-04-30T08:50:52;98441.31;;;14.87;100.00
33161;BME280;19522;45.656;11.302;2023-04-30T08:53:18;98444.63;;;15.03;100.00
33161;BME280;19522;45.656;11.302;2023-04-30T08:55:46;98443.00;;;14.88;100.00
33161;BME280;19522;45.656;11.302;2023-04-30T08:58:12;98458.75;;;14.93;100.00
33161;BME280;19522;45.656;11.302;2023-04-30T09:00:38;98457.28;;;14.90;100.00
33161;BME280;19522;45.656;11.302;2023-04-30T09:03:04;98458.94;;;14.98;100.00
33161;BME280;19522;45.656;11.302;2023-04-30T09:05:30;98463.75;;;15.03;100.00
33161;BME280;19522;45.656;11.302;2023-04-30T09:07:56;98465.44;;;15.04;100.00
33161;BME280;19522;45.656;11.302;2023-04-30T09:10:22;98447.16;;;14.98;100.00
33161;BME280;19522;45.656;11.302;2023-04-30T09:12:58;98467.31;;;15.10;100.00
33161;BME280;19522;45.656;11.302;2023-04-30T09:15:24;98454.09;;;15.00;100.00
33161;BME280;19522;45.656;11.302;2023-04-30T09:17:50;98472.25;;;15.26;100.00
33161;BME280;19522;45.656;11.302;2023-04-30T09:20:24;98461.19;;;15.15;100.00
33161;BME280;19522;45.656;11.302;2023-04-30T09:23:07;98458.88;;;15.11;100.00
33161;BME280;19522;45.656;11.302;2023-04-30T09:25:40;98466.63;;;15.21;100.00
33161;BME280;19522;45.656;11.302;2023-04-30T09:28:10;98456.31;;;15.23;100.00
33161;BME280;19522;45.656;11.302;2023-04-30T09:30:36;98450.38;;;15.26;100.00
33161;BME280;19522;45.656;11.302;2023-04-30T09:33:02;98457.06;;;15.37;100.00
33161;BME280;19522;45.656;11.302;2023-04-30T09:35:32;98461.25;;;15.40;100.00
33161;BME280;19522;45.656;11.302;2023-04-30T09:38:02;98460.84;;;15.43;100.00
33161;BME280;19522;45.656;11.302;2023-04-30T09:40:38;98463.56;;;15.43;100.00
33161;BME280;19522;45.656;11.302;2023-04-30T09:43:07;98455.78;;;15.40;100.00
33161;BME280;19522;45.656;11.302;2023-04-30T09:45:44;98458.31;;;15.35;100.00
33161;BME280;19522;45.656;11.302;2023-04-30T09:48:20;98447.75;;;15.45;100.00
33161;BME280;19522;45.656;11.302;2023-04-30T09:50:47;98454.50;;;15.42;98.93
33161;BME280;19522;45.656;11.302;2023-04-30T09:53:13;98430.03;;;15.16;100.00
33161;BME280;19522;45.656;11.302;2023-04-30T09:55:44;98448.31;;;15.15;98.83
33161;BME280;19522;45.656;11.302;2023-04-30T09:58:11;98413.81;;;14.75;100.00
33161;BME280;19522;45.656;11.302;2023-04-30T10:00:37;98446.38;;;14.84;100.00
33161;BME280;19522;45.656;11.302;2023-04-30T10:03:13;98431.09;;;14.49;99.85
33161;BME280;19522;45.656;11.302;2023-04-30T10:05:43;98422.94;;;14.36;100.00
33161;BME280;19522;45.656;11.302;2023-04-30T10:08:21;98416.28;;;14.18;99.93
33161;BME280;19522;45.656;11.302;2023-04-30T10:11:08;98449.00;;;14.45;100.00
33161;BME280;19522;45.656;11.302;2023-04-30T10:13:35;98440.97;;;14.50;100.00
33161;BME280;19522;45.656;11.302;2023-04-30T10:16:20;98411.16;;;14.35;98.62
33161;BME280;19522;45.656;11.302;2023-04-30T10:18:50;98451.47;;;14.60;97.00
33161;BME280;19522;45.656;11.302;2023-04-30T10:21:17;98437.81;;;14.60;98.61
33161;BME280;19522;45.656;11.302;2023-04-30T10:23:45;98420.38;;;14.54;98.41
33161;BME280;19522;45.656;11.302;2023-04-30T10:26:13;98433.38;;;14.65;98.00
33161;BME280;19522;45.656;11.302;2023-04-30T10:28:41;98427.28;;;14.63;97.73
33161;BME280;19522;45.656;11.302;2023-04-30T10:31:07;98427.06;;;14.72;96.87
33161;BME280;19522;45.656;11.302;2023-04-30T10:36:06;98427.31;;;14.70;99.81
33161;BME280;19522;45.656;11.302;2023-04-30T10:38:38;98431.25;;;14.81;100.00
33161;BME280;19522;45.656;11.302;2023-04-30T10:41:06;98404.72;;;14.82;100.00
33161;BME280;19522;45.656;11.302;2023-04-30T10:43:32;98422.56;;;14.91;100.00
33161;BME280;19522;45.656;11.302;2023-04-30T10:46:01;98417.47;;;15.01;100.00
33161;BME280;19522;45.656;11.302;2023-04-30T10:48:27;98416.41;;;15.09;100.00
33161;BME280;19522;45.656;11.302;2023-04-30T10:50:58;98413.44;;;15.10;100.00
33161;BME280;19522;45.656;11.302;2023-04-30T10:53:24;98400.84;;;15.09;100.00
33161;BME280;19522;45.656;11.302;2023-04-30T10:58:26;98386.50;;;15.14;99.88
33161;BME280;19522;45.656;11.302;2023-04-30T11:01:08;98415.00;;;15.32;100.00
33161;BME280;19522;45.656;11.302;2023-04-30T11:03:36;98406.25;;;15.16;100.00
33161;BME280;19522;45.656;11.302;2023-04-30T11:06:12;98409.59;;;15.18;100.00
33161;BME280;19522;45.656;11.302;2023-04-30T11:08:42;98399.94;;;15.16;100.00
33161;BME280;19522;45.656;11.302;2023-04-30T11:11:09;98400.78;;;15.16;100.00
33161;BME280;19522;45.656;11.302;2023-04-30T11:13:44;98390.22;;;15.20;100.00
33161;BME280;19522;45.656;11.302;2023-04-30T11:16:10;98393.81;;;15.20;100.00
33161;BME280;19522;45.656;11.302;2023-04-30T11:18:43;98401.09;;;15.33;98.83
33161;BME280;19522;45.656;11.302;2023-04-30T11:21:09;98407.19;;;15.35;98.71
33161;BME280;19522;45.656;11.302;2023-04-30T11:23:35;98387.47;;;15.26;100.00
33161;BME280;19522;45.656;11.302;2023-04-30T11:26:00;98399.78;;;15.42;99.12
33161;BME280;19522;45.656;11.302;2023-04-30T11:28:28;98392.63;;;15.41;99.56
33161;BME280;19522;45.656;11.302;2023-04-30T11:30:58;98402.28;;;15.44;100.00
33161;BME280;19522;45.656;11.302;2023-04-30T11:33:31;98406.50;;;15.47;100.00
33161;BME280;19522;45.656;11.302;2023-04-30T11:35:59;98398.50;;;15.45;100.00
33161;BME280;19522;45.656;11.302;2023-04-30T11:38:26;98404.97;;;15.51;99.95
33161;BME280;19522;45.656;11.302;2023-04-30T11:40:51;98406.03;;;15.50;100.00
33161;BME280;19522;45.656;11.302;2023-04-30T11:43:29;98385.47;;;15.40;100.00
33161;BME280;19522;45.656;11.302;2023-04-30T11:46:14;98400.16;;;15.46;100.00
33161;BME280;19522;45.656;11.302;2023-04-30T11:48:43;98394.88;;;15.51;97.97
33161;BME280;19522;45.656;11.302;2023-04-30T11:51:16;98398.84;;;15.55;96.37
33161;BME280;19522;45.656;11.302;2023-04-30T11:53:42;98395.56;;;15.47;97.03
33161;BME280;19522;45.656;11.302;2023-04-30T11:56:07;98396.00;;;15.43;96.80
33161;BME280;19522;45.656;11.302;2023-04-30T11:58:35;98372.69;;;15.34;97.10
33161;BME280;19522;45.656;11.302;2023-04-30T12:01:02;98380.91;;;15.34;98.32
33161;BME280;19522;45.656;11.302;2023-04-30T12:03:28;98370.84;;;15.28;97.27
33161;BME280;19522;45.656;11.302;2023-04-30T12:05:55;98391.19;;;15.39;97.77
33161;BME280;19522;45.656;11.302;2023-04-30T12:08:21;98372.03;;;15.39;97.08
33161;BME280;19522;45.656;11.302;2023-04-30T12:10:47;98384.66;;;15.40;96.11
33161;BME280;19522;45.656;11.302;2023-04-30T12:13:13;98386.28;;;15.48;94.26
33161;BME280;19522;45.656;11.302;2023-04-30T12:15:41;98381.28;;;15.38;94.15
33161;BME280;19522;45.656;11.302;2023-04-30T12:18:13;98379.84;;;15.35;94.40
33161;BME280;19522;45.656;11.302;2023-04-30T12:20:40;98350.78;;;15.02;93.46
33161;BME280;19522;45.656;11.302;2023-04-30T12:23:07;98382.25;;;15.18;94.89
33161;BME280;19522;45.656;11.302;2023-04-30T12:25:39;98369.25;;;15.14;94.94
33161;BME280;19522;45.656;11.302;2023-04-30T12:28:05;98307.47;;;14.60;95.16
33161;BME280;19522;45.656;11.302;2023-04-30T12:30:31;98356.50;;;15.01;95.01
33161;BME280;19522;45.656;11.302;2023-04-30T12:32:58;98364.44;;;15.09;94.14
33161;BME280;19522;45.656;11.302;2023-04-30T12:35:27;98361.06;;;15.07;89.92
33161;BME280;19522;45.656;11.302;2023-04-30T12:38:08;98344.91;;;15.05;90.85
33161;BME280;19522;45.656;11.302;2023-04-30T12:40:34;98372.25;;;15.37;92.64
33161;BME280;19522;45.656;11.302;2023-04-30T12:43:05;98359.59;;;15.43;93.56
33161;BME280;19522;45.656;11.302;2023-04-30T12:48:11;98364.56;;;15.78;94.26
33161;BME280;19522;45.656;11.302;2023-04-30T12:50:36;98345.13;;;15.86;94.02
33161;BME280;19522;45.656;11.302;2023-04-30T12:53:03;98339.22;;;15.89;92.27
33161;BME280;19522;45.656;11.302;2023-04-30T12:55:29;98329.56;;;15.87;92.73
33161;BME280;19522;45.656;11.302;2023-04-30T12:58:13;98341.50;;;16.11;91.44
33161;BME280;19522;45.656;11.302;2023-04-30T13:00:49;98346.41;;;16.28;90.55
33161;BME280;19522;45.656;11.302;2023-04-30T13:03:20;98353.94;;;16.32;91.17
33161;BME280;19522;45.656;11.302;2023-04-30T13:05:48;98341.28;;;16.31;92.43
33161;BME280;19522;45.656;11.302;2023-04-30T13:08:14;98348.97;;;16.41;90.29